Time;durP1;ratioP1;P1;durP2;ratioP2;P2;SDS_P1;SDS_P2;PMS_P1;PMS_P2;Temp;Humidity;BMP_temperature;BMP_pressure;BME280_temperature;BME280_humidity;BME280_pressure;Samples;Min_cycle;Max_cycle;Signal;HPM_P1;HPM_P2
2023/01/11 00:04:43;;;;;;;3.70;1.08;;;;;;;8.39;100.00;100670.13;10414877;28;20122;-79
2023/01/11 00:09:46;;;;;;;0.82;0.43;;;;;;;8.38;100.00;100657.91;10437874;28;20034;-79
2023/01/11 00:14:47;;;;;;;1.63;0.40;;;;;;;8.48;100.00;100647.16;10428242;28;20215;-79
2023/01/11 00:19:57;;;;;;;0.38;0.30;;;;;;;8.51;100.00;100636.91;10421666;28;20111;-79
2023/01/11 00:25:00;;;;;;;1.70;0.82;;;;;;;8.57;100.00;100635.44;10418266;28;20116;-79
2023/01/11 00:30:05;;;;;;;0.93;0.40;;;;;;;8.57;100.00;100635.44;10450565;28;20048;-79
2023/01/11 00:35:09;;;;;;;8.38;0.80;;;;;;;8.66;100.00;100625.47;10443290;28;20037;-80
2023/01/11 00:40:16;;;;;;;0.60;0.50;;;;;;;8.62;100.00;100627.06;10415676;28;20116;-79
2023/01/11 00:50:38;;;;;;;1.48;0.60;;;;;;;8.63;100.00;100609.66;10433979;28;20120;-79
2023/01/11 00:55:44;;;;;;;0.47;0.30;;;;;;;8.70;100.00;100605.69;10410171;28;20044;-79
2023/01/11 01:00:50;;;;;;;0.65;0.43;;;;;;;8.72;100.00;100604.91;10409270;28;20041;-79
2023/01/11 01:05:59;;;;;;;2.40;0.60;;;;;;;8.64;100.00;100599.31;10445862;28;20049;-79
2023/01/11 01:10:59;;;;;;;3.17;0.60;;;;;;;8.71;100.00;100607.47;10419410;28;20099;-79
2023/01/11 01:16:00;;;;;;;1.45;0.85;;;;;;;8.64;100.00;100604.53;10421344;28;20469;-78
2023/01/11 01:21:01;;;;;;;0.77;0.70;;;;;;;8.55;100.00;100616.19;10462537;28;20041;-79
2023/01/11 01:26:03;;;;;;;6.90;0.85;;;;;;;8.38;100.00;100629.22;10396842;28;20064;-79
2023/01/11 01:31:07;;;;;;;2.13;1.05;;;;;;;8.25;100.00;100618.97;10457272;28;20092;-79
2023/01/11 01:36:11;;;;;;;3.55;0.70;;;;;;;8.11;100.00;100633.88;10436238;28;20059;-79
2023/01/11 01:41:27;;;;;;;1.65;1.00;;;;;;;8.14;100.00;100639.25;10443677;28;20063;-78
2023/01/11 01:46:39;;;;;;;2.03;0.93;;;;;;;8.12;100.00;100635.69;10435948;28;20048;-79
2023/01/11 01:51:52;;;;;;;1.55;0.63;;;;;;;8.13;100.00;100630.53;10428334;28;20156;-80
2023/01/11 01:57:03;;;;;;;2.72;2.03;;;;;;;8.11;100.00;100631.28;10407696;28;20057;-80
2023/01/11 02:02:04;;;;;;;1.38;1.00;;;;;;;8.13;100.00;100635.75;10426051;28;20049;-80
2023/01/11 02:07:19;;;;;;;0.80;0.50;;;;;;;8.10;100.00;100630.38;10441938;28;20436;-80
2023/01/11 02:12:47;;;;;;;1.20;0.40;;;;;;;8.17;100.00;100626.38;10433807;28;20033;-80
2023/01/11 02:17:50;;;;;;;5.32;0.90;;;;;;;8.18;100.00;100630.78;10403466;28;20045;-80
2023/01/11 02:23:12;;;;;;;1.08;0.43;;;;;;;8.18;100.00;100623.84;10434300;28;20130;-80
2023/01/11 02:28:26;;;;;;;5.30;2.60;;;;;;;8.23;100.00;100625.00;10436825;28;20512;-80
2023/01/11 02:34:06;;;;;;;0.85;0.50;;;;;;;8.39;100.00;100615.38;10423623;28;20041;-80
2023/01/11 02:39:34;;;;;;;1.77;0.55;;;;;;;8.31;100.00;100611.47;10421766;28;20090;-81
2023/01/11 02:50:52;;;;;;;;;;;;;;;;;;;;;
2023/01/11 02:56:04;;;;;;;0.65;0.30;;;;;;;8.34;100.00;100599.50;10426653;28;20041;-79
2023/01/11 03:01:05;;;;;;;1.13;0.60;;;;;;;8.49;100.00;100608.97;10429840;28;20060;-80
2023/01/11 03:06:37;;;;;;;2.13;0.35;;;;;;;8.53;100.00;100590.06;10418362;28;20515;-80
2023/01/11 03:17:35;;;;;;;0.32;0.32;;;;;;;8.65;100.00;100576.72;10408460;28;20045;-79
2023/01/11 03:23:21;;;;;;;0.82;0.30;;;;;;;8.69;100.00;100570.84;10432870;28;20048;-79
2023/01/11 03:28:28;;;;;;;0.65;0.20;;;;;;;8.74;100.00;100569.38;10378125;28;20048;-78
2023/01/11 03:33:43;;;;;;;1.98;0.55;;;;;;;8.80;100.00;100567.06;10437117;28;20044;-80
2023/01/11 03:38:56;;;;;;;3.00;0.90;;;;;;;8.80;100.00;100564.44;10423762;28;20091;-80
2023/01/11 03:43:56;;;;;;;0.77;0.43;;;;;;;8.78;100.00;100567.81;10419509;28;20045;-79
2023/01/11 03:49:01;;;;;;;5.03;0.55;;;;;;;8.82;100.00;100565.41;10451006;28;20562;-79
2023/01/11 03:54:03;;;;;;;1.95;0.43;;;;;;;8.83;100.00;100558.50;10474569;28;20041;-79
2023/01/11 03:59:03;;;;;;;1.67;0.93;;;;;;;8.84;100.00;100554.16;10435302;28;20147;-78
2023/01/11 04:04:04;;;;;;;3.20;0.30;;;;;;;8.86;100.00;100556.06;10415626;28;20094;-79
2023/01/11 04:09:05;;;;;;;0.80;0.30;;;;;;;8.87;100.00;100546.50;10438184;28;20074;-79
2023/01/11 04:14:06;;;;;;;1.55;0.30;;;;;;;8.86;100.00;100542.09;10422001;28;20041;-78
2023/01/11 04:19:06;;;;;;;0.20;0.20;;;;;;;8.80;100.00;100555.75;10429639;28;20128;-79
2023/01/11 04:24:07;;;;;;;6.38;0.50;;;;;;;8.87;100.00;100555.22;10431114;28;20055;-79
2023/01/11 04:29:08;;;;;;;0.52;0.28;;;;;;;8.87;100.00;100557.84;10444201;28;20037;-78
2023/01/11 04:34:10;;;;;;;0.90;0.30;;;;;;;8.88;100.00;100557.03;10480366;28;20174;-79
2023/01/11 04:39:10;;;;;;;0.40;0.20;;;;;;;8.94;100.00;100552.09;10417447;28;20076;-80
2023/01/11 04:44:11;;;;;;;0.32;0.17;;;;;;;8.89;100.00;100544.84;10421043;28;20540;-80
2023/01/11 04:49:11;;;;;;;0.63;0.20;;;;;;;8.93;100.00;100552.00;10443209;28;20509;-79
2023/01/11 04:54:12;;;;;;;1.05;0.50;;;;;;;8.95;100.00;100563.41;10433481;28;20503;-79
2023/01/11 04:59:13;;;;;;;2.05;0.40;;;;;;;8.91;100.00;100557.16;10441899;28;20081;-79
2023/01/11 05:04:13;;;;;;;1.38;0.95;;;;;;;8.91;100.00;100556.25;10446597;28;20102;-78
2023/01/11 05:09:15;;;;;;;0.25;0.20;;;;;;;8.95;100.00;100552.97;10439515;28;20131;-78
2023/01/11 05:14:16;;;;;;;2.08;0.28;;;;;;;8.91;100.00;100559.78;10441556;28;20497;-78
2023/01/11 05:19:17;;;;;;;1.98;0.32;;;;;;;8.90;100.00;100562.31;10436446;28;20130;-78
2023/01/11 05:24:17;;;;;;;2.65;0.40;;;;;;;8.86;100.00;100570.78;10462884;28;20099;-78
2023/01/11 05:29:19;;;;;;;0.40;0.30;;;;;;;8.90;100.00;100568.44;10419076;28;20079;-80
2023/01/11 05:34:20;;;;;;;1.95;0.50;;;;;;;8.92;100.00;100571.09;10427635;28;20048;-82
2023/01/11 05:39:22;;;;;;;0.52;0.30;;;;;;;8.93;100.00;100578.09;10433316;28;20799;-81
2023/01/11 05:49:42;;;;;;;0.70;0.50;;;;;;;8.93;100.00;100567.66;10444443;28;19960;-81
2023/01/11 05:54:42;;;;;;;1.30;0.73;;;;;;;8.93;100.00;100583.34;10449065;28;20191;-84
2023/01/11 05:59:43;;;;;;;1.52;0.82;;;;;;;8.93;100.00;100599.00;10430051;28;20041;-83
2023/01/11 06:04:44;;;;;;;1.60;1.08;;;;;;;8.93;100.00;100588.56;10410414;28;20041;-82
2023/01/11 06:09:45;;;;;;;1.23;0.70;;;;;;;9.01;100.00;100576.78;10420950;28;20037;-81
2023/01/11 06:14:46;;;;;;;2.13;0.70;;;;;;;9.02;100.00;100591.63;10439818;28;20505;-81
2023/01/11 06:19:47;;;;;;;2.30;1.17;;;;;;;9.04;100.00;100594.31;10429191;28;20069;-79
2023/01/11 06:24:48;;;;;;;3.83;1.30;;;;;;;8.98;100.00;100599.22;10433245;28;20043;-78
2023/01/11 06:29:49;;;;;;;2.53;1.20;;;;;;;8.95;100.00;100607.78;10425018;28;20041;-82
2023/01/11 06:34:49;;;;;;;2.63;1.60;;;;;;;9.01;100.00;100610.72;10418143;28;20061;-80
2023/01/11 06:39:50;;;;;;;4.45;1.77;;;;;;;8.95;100.00;100618.22;10431473;28;20120;-79
2023/01/11 06:44:50;;;;;;;1.98;1.30;;;;;;;8.98;100.00;100628.84;10438144;28;20049;-79
2023/01/11 06:49:51;;;;;;;2.75;1.73;;;;;;;8.97;100.00;100650.53;10441941;28;20037;-80
2023/01/11 06:54:51;;;;;;;3.72;1.60;;;;;;;8.91;100.00;100647.59;10448457;28;20520;-81
2023/01/11 06:59:52;;;;;;;3.92;1.88;;;;;;;8.97;100.00;100640.09;10439142;28;20045;-80
2023/01/11 07:04:52;;;;;;;3.08;1.52;;;;;;;8.98;100.00;100633.16;10437202;28;20485;-80
2023/01/11 07:09:53;;;;;;;7.07;2.58;;;;;;;9.02;100.00;100630.78;10434580;28;20121;-81
2023/01/11 07:14:54;;;;;;;6.60;3.20;;;;;;;8.96;100.00;100646.13;10420687;28;20029;-80
2023/01/11 07:19:58;;;;;;;10.88;4.60;;;;;;;9.01;100.00;100657.69;10439565;28;20067;-79
2023/01/11 07:24:59;;;;;;;10.00;4.05;;;;;;;8.99;100.00;100664.56;10453318;28;20123;-79
2023/01/11 07:29:59;;;;;;;12.32;5.07;;;;;;;8.96;100.00;100693.13;10409167;28;20049;-81
2023/01/11 07:35:00;;;;;;;11.40;5.30;;;;;;;8.92;100.00;100688.56;10416486;28;20445;-79
2023/01/11 07:40:00;;;;;;;16.20;6.10;;;;;;;8.72;100.00;100711.91;10438783;28;20095;-80
2023/01/11 07:45:04;;;;;;;15.13;4.55;;;;;;;8.60;100.00;100704.34;10408378;28;20033;-78
2023/01/11 07:50:05;;;;;;;12.00;4.88;;;;;;;8.47;100.00;100704.47;10382689;28;20042;-79
2023/01/11 07:55:09;;;;;;;17.13;5.40;;;;;;;8.42;100.00;100732.88;10395942;28;20091;-78
2023/01/11 08:00:11;;;;;;;18.33;7.43;;;;;;;8.38;100.00;100726.63;10388458;28;20136;-80
2023/01/11 08:05:14;;;;;;;19.17;7.60;;;;;;;8.40;100.00;100758.00;10385795;28;20036;-80
2023/01/11 08:10:15;;;;;;;15.95;6.65;;;;;;;8.34;100.00;100765.47;10438090;28;20041;-80
2023/01/11 08:15:16;;;;;;;22.33;8.25;;;;;;;8.29;100.00;100752.19;10442944;28;20040;-81
2023/01/11 08:20:17;;;;;;;27.30;6.77;;;;;;;8.20;100.00;100788.19;10442311;28;20071;-81
2023/01/11 08:25:17;;;;;;;19.85;8.02;;;;;;;8.08;100.00;100801.41;10425084;28;20133;-78
2023/01/11 08:30:18;;;;;;;22.27;6.38;;;;;;;8.04;100.00;100802.06;10417521;28;20043;-83
2023/01/11 08:35:20;;;;;;;16.25;6.43;;;;;;;8.07;100.00;100824.00;10407110;28;20044;-79
2023/01/11 08:40:21;;;;;;;;;;;;;;;8.11;100.00;100813.75;10388619;28;20167;-79
2023/01/11 08:45:21;;;;;;;20.00;7.13;;;;;;;8.12;100.00;100832.06;10403467;28;19940;-80
2023/01/11 08:50:22;;;;;;;19.73;6.40;;;;;;;8.14;100.00;100850.41;10383814;28;20120;-80
2023/01/11 08:55:22;;;;;;;13.20;4.70;;;;;;;8.16;100.00;100851.41;10403304;28;20037;-79
2023/01/11 09:00:23;;;;;;;17.70;7.78;;;;;;;8.18;100.00;100857.59;10405579;28;20126;-79
2023/01/11 09:05:23;;;;;;;24.83;7.18;;;;;;;8.17;100.00;100868.84;10387798;28;20048;-79
2023/01/11 09:10:25;;;;;;;18.30;8.57;;;;;;;8.12;100.00;100863.34;10404351;28;20121;-81
2023/01/11 09:15:26;;;;;;;;;;;;;;;8.07;100.00;100878.75;10387949;28;20042;-79
2023/01/11 09:20:26;;;;;;;24.50;6.55;;;;;;;8.04;100.00;100880.25;10403893;28;19929;-79
2023/01/11 09:25:27;;;;;;;15.43;6.25;;;;;;;8.03;100.00;100894.09;10402405;28;20124;-80
2023/01/11 09:30:27;;;;;;;18.65;5.45;;;;;;;8.03;100.00;100896.69;10425717;28;20048;-80
2023/01/11 09:35:28;;;;;;;15.90;4.40;;;;;;;8.07;100.00;100912.63;10434797;28;20600;-80
2023/01/11 09:40:37;;;;;;;19.70;7.68;;;;;;;8.07;100.00;100916.94;10416549;28;20557;-81
2023/01/11 09:45:41;;;;;;;15.70;5.70;;;;;;;8.08;100.00;100926.53;10411364;28;20024;-81
2023/01/11 09:50:46;;;;;;;12.70;4.78;;;;;;;8.04;100.00;100928.09;10453567;28;20037;-83
2023/01/11 09:55:48;;;;;;;35.85;6.63;;;;;;;8.05;100.00;100935.09;10426944;28;20048;-82
2023/01/11 10:00:50;;;;;;;17.08;4.82;;;;;;;8.07;100.00;100930.88;10426425;28;20103;-81
2023/01/11 10:05:58;;;;;;;21.52;7.63;;;;;;;8.21;100.00;100928.19;10418035;28;20049;-81
2023/01/11 10:11:05;;;;;;;20.58;5.05;;;;;;;9.04;100.00;100924.16;10442844;28;20045;-82
2023/01/11 10:16:43;;;;;;;13.18;5.15;;;;;;;9.17;100.00;100917.88;10472229;28;20037;-82
2023/01/11 10:21:54;;;;;;;16.95;4.63;;;;;;;9.72;100.00;100920.72;10437029;28;20037;-82
2023/01/11 10:26:58;;;;;;;22.80;7.43;;;;;;;12.11;100.00;100900.44;10460154;28;20094;-81
2023/01/11 10:38:05;;;;;;;23.65;7.72;;;;;;;11.32;100.00;100911.00;10448670;28;20040;-82
2023/01/11 10:42:51;;;;;;;13.13;5.00;;;;;;;11.66;100.00;100916.88;10430170;28;20044;-81
2023/01/11 10:48:01;;;;;;;11.23;5.20;;;;;;;12.63;100.00;100917.44;10441988;28;20048;-82
2023/01/11 10:53:20;;;;;;;15.68;5.68;;;;;;;10.11;100.00;100918.34;10440279;28;20094;-83
2023/01/11 10:58:45;;;;;;;12.43;5.72;;;;;;;9.66;100.00;100919.59;10455236;28;20037;-81
2023/01/11 11:04:07;;;;;;;22.00;6.20;;;;;;;9.72;100.00;100921.63;10466331;28;20094;-81
2023/01/11 11:09:22;;;;;;;21.92;5.95;;;;;;;8.87;100.00;100931.06;10446531;28;20547;-81
2023/01/11 11:14:29;;;;;;;17.88;5.22;;;;;;;8.70;100.00;100930.09;10465945;28;20040;-81
2023/01/11 11:19:31;;;;;;;12.57;5.32;;;;;;;8.85;100.00;100937.00;10465524;28;20036;-81
2023/01/11 11:25:01;;;;;;;14.65;5.38;;;;;;;9.19;100.00;100936.25;10484305;28;20111;-82
2023/01/11 11:30:02;;;;;;;17.60;7.30;;;;;;;9.34;100.00;100930.97;10471809;28;20526;-81
2023/01/11 11:35:03;;;;;;;16.75;7.07;;;;;;;10.81;100.00;100925.28;10464867;28;20074;-81
2023/01/11 11:40:04;;;;;;;17.98;5.32;;;;;;;10.01;100.00;100927.47;10480498;28;20095;-81
2023/01/11 11:45:08;;;;;;;13.57;4.10;;;;;;;10.69;100.00;100930.84;10480885;28;20028;-81
2023/01/11 11:50:17;;;;;;;18.98;6.00;;;;;;;11.08;100.00;100919.53;10480650;28;20043;-81
2023/01/11 11:55:25;;;;;;;17.52;6.22;;;;;;;11.77;100.00;100918.25;10472673;28;20043;-81
2023/01/11 12:00:28;;;;;;;21.25;6.95;;;;;;;12.02;100.00;100917.59;10437762;28;20059;-82
2023/01/11 12:05:28;;;;;;;24.08;5.18;;;;;;;12.55;100.00;100917.13;10369978;28;20045;-81
2023/01/11 12:10:29;;;;;;;10.00;4.78;;;;;;;11.30;100.00;100921.44;10380922;28;20112;-81
2023/01/11 12:15:30;;;;;;;14.30;5.30;;;;;;;11.07;100.00;100925.59;10397019;28;20512;-80
2023/01/11 12:20:32;;;;;;;19.77;5.90;;;;;;;11.13;100.00;100935.47;10400919;28;20541;-80
2023/01/11 12:25:35;;;;;;;15.48;3.60;;;;;;;10.96;100.00;100911.13;10399691;28;20045;-81
2023/01/11 12:31:17;;;;;;;15.38;4.03;;;;;;;10.58;100.00;100916.34;10381102;28;20091;-81
2023/01/11 12:36:21;;;;;;;11.57;3.03;;;;;;;10.13;100.00;100928.09;10426644;28;20041;-82
2023/01/11 12:41:43;;;;;;;18.55;5.10;;;;;;;10.19;100.00;100917.00;10444360;28;20135;-81
2023/01/11 12:47:08;;;;;;;14.05;3.55;;;;;;;10.35;100.00;100933.47;10446422;28;20037;-82
2023/01/11 12:52:14;;;;;;;16.00;3.75;;;;;;;9.94;100.00;100928.84;10426065;28;20090;-81
2023/01/11 12:57:23;;;;;;;15.00;4.90;;;;;;;9.65;100.00;100954.38;10446576;28;20505;-83
2023/01/11 13:02:29;;;;;;;15.68;4.03;;;;;;;9.80;100.00;100927.25;10457202;28;20086;-80
2023/01/11 13:07:42;;;;;;;15.90;4.20;;;;;;;10.31;100.00;100939.38;10468656;28;20131;-81
2023/01/11 13:13:00;;;;;;;14.70;3.80;;;;;;;10.01;100.00;100942.25;10442576;28;20051;-80
2023/01/11 13:18:06;;;;;;;15.30;3.63;;;;;;;10.56;100.00;100945.03;10444481;28;20044;-80
2023/01/11 13:23:12;;;;;;;16.67;4.18;;;;;;;10.74;100.00;100943.25;10459407;28;20071;-80
2023/01/11 13:28:34;;;;;;;15.07;4.25;;;;;;;11.05;100.00;100942.97;10446005;28;20508;-79
2023/01/11 13:33:34;;;;;;;14.18;6.50;;;;;;;10.54;100.00;100948.41;10456841;28;20396;-79
2023/01/11 13:38:50;;;;;;;12.80;3.83;;;;;;;9.67;100.00;100947.50;10441724;28;20037;-81
2023/01/11 13:44:04;;;;;;;16.92;4.18;;;;;;;9.61;100.00;100954.16;10442156;28;20052;-80
2023/01/11 13:49:10;;;;;;;12.50;5.28;;;;;;;10.11;100.00;100960.19;10441632;28;20123;-80
2023/01/11 13:54:17;;;;;;;12.82;3.95;;;;;;;10.71;100.00;100963.22;10450022;28;20037;-79
2023/01/11 13:59:35;;;;;;;21.65;4.25;;;;;;;10.26;100.00;100962.72;10441082;28;20504;-79
2023/01/11 14:04:43;;;;;;;22.73;6.13;;;;;;;10.07;100.00;100961.78;10447689;28;20060;-80
2023/01/11 14:09:55;;;;;;;10.43;3.25;;;;;;;10.62;100.00;100977.56;10456684;28;20045;-80
2023/01/11 14:15:05;;;;;;;12.38;5.90;;;;;;;11.38;100.00;100960.19;10419970;28;20052;-79
2023/01/11 14:20:32;;;;;;;20.67;4.40;;;;;;;10.97;100.00;100967.91;10466443;28;20522;-80
2023/01/11 14:25:37;;;;;;;16.50;4.25;;;;;;;10.42;100.00;100973.16;10421330;28;20056;-79
2023/01/11 14:30:58;;;;;;;16.67;5.32;;;;;;;9.96;100.00;100968.16;10429159;28;20037;-81
2023/01/11 14:36:35;;;;;;;17.42;5.18;;;;;;;9.65;100.00;100984.84;10389036;28;20497;-78
2023/01/11 14:42:13;;;;;;;13.40;4.95;;;;;;;9.46;100.00;100976.03;10398421;28;20386;-78
2023/01/11 14:47:52;;;;;;;16.63;7.72;;;;;;;8.96;100.00;100977.66;10424734;28;20073;-79
2023/01/11 14:52:52;;;;;;;15.20;3.67;;;;;;;8.91;100.00;100987.84;10410850;28;20394;-79
2023/01/11 14:57:56;;;;;;;14.70;6.40;;;;;;;9.00;100.00;100984.84;10363143;28;20069;-80
2023/01/11 15:02:59;;;;;;;21.98;5.22;;;;;;;8.71;100.00;100984.09;10410566;28;20041;-80
2023/01/11 15:08:24;;;;;;;17.95;5.07;;;;;;;8.65;100.00;100979.44;10409080;28;20128;-79
2023/01/11 15:13:28;;;;;;;21.70;4.93;;;;;;;8.65;100.00;100983.75;10487347;28;20040;-79
2023/01/11 15:18:28;;;;;;;18.17;5.65;;;;;;;8.60;100.00;100987.78;10470796;28;20050;-78
2023/01/11 15:23:37;;;;;;;14.25;4.80;;;;;;;8.49;100.00;100990.69;10455782;28;20370;-78
2023/01/11 15:28:48;;;;;;;15.95;4.78;;;;;;;8.44;100.00;100994.69;10448916;28;20044;-80
2023/01/11 15:33:50;;;;;;;12.80;4.68;;;;;;;8.41;100.00;100997.13;10403949;28;20129;-80
2023/01/11 15:38:52;;;;;;;17.27;4.97;;;;;;;8.22;100.00;100989.94;10419364;28;20053;-81
2023/01/11 15:44:29;;;;;;;14.10;5.00;;;;;;;7.98;100.00;100994.56;10431350;28;20041;-82
2023/01/11 15:49:53;;;;;;;11.27;3.65;;;;;;;7.99;100.00;100997.28;10432522;28;20063;-82
2023/01/11 15:55:24;;;;;;;16.13;4.38;;;;;;;7.85;100.00;101014.69;10434416;28;20057;-79
2023/01/11 16:00:44;;;;;;;10.77;5.10;;;;;;;7.78;100.00;101028.13;10438641;28;20049;-82
2023/01/11 16:06:14;;;;;;;17.48;4.78;;;;;;;7.63;100.00;101036.81;10423361;28;20057;-84
2023/01/11 16:11:45;;;;;;;18.65;4.28;;;;;;;7.45;100.00;101054.81;10456518;28;20048;-79
2023/01/11 16:16:50;;;;;;;14.85;2.90;;;;;;;7.31;100.00;101047.81;10413493;28;20465;-81
2023/01/11 16:21:54;;;;;;;15.00;3.35;;;;;;;7.12;100.00;101049.25;10402864;28;20092;-81
2023/01/11 16:26:56;;;;;;;9.98;3.65;;;;;;;7.09;100.00;101062.06;10398034;28;20094;-81
2023/01/11 16:32:04;;;;;;;12.13;2.40;;;;;;;7.16;100.00;101072.06;10427077;28;20433;-82
2023/01/11 16:37:27;;;;;;;9.45;3.67;;;;;;;6.95;100.00;101071.56;10426015;28;20385;-82
2023/01/11 16:42:30;;;;;;;11.55;3.00;;;;;;;6.94;100.00;101076.69;10430495;28;20351;-82
2023/01/11 16:47:30;;;;;;;15.40;3.40;;;;;;;6.84;100.00;101085.56;10416815;28;20029;-82
2023/01/11 16:52:35;;;;;;;12.77;3.65;;;;;;;7.08;100.00;101081.09;10409710;28;20056;-82
2023/01/11 16:57:38;;;;;;;9.57;3.75;;;;;;;7.12;100.00;101093.50;10435721;28;20098;-83
2023/01/11 17:02:41;;;;;;;11.32;3.25;;;;;;;7.27;100.00;101082.28;10440336;28;20150;-83
2023/01/11 17:07:42;;;;;;;15.75;3.47;;;;;;;7.05;100.00;101089.56;10391094;28;20037;-80
2023/01/11 17:12:43;;;;;;;11.45;2.97;;;;;;;7.03;100.00;101095.50;10393446;28;20576;-78
2023/01/11 17:17:43;;;;;;;11.20;3.15;;;;;;;7.00;100.00;101096.19;10389302;28;20149;-80
2023/01/11 17:22:44;;;;;;;16.33;3.65;;;;;;;6.96;100.00;101095.88;10381661;28;20035;-81
2023/01/11 17:28:06;;;;;;;14.73;3.50;;;;;;;6.85;100.00;101075.28;10386420;28;20095;-82
2023/01/11 17:33:09;;;;;;;;;;;;;;;6.85;100.00;101066.53;10394129;28;20441;-82
2023/01/11 17:38:19;;;;;;;17.83;6.00;;;;;;;6.98;100.00;101074.34;10465730;28;19927;-84
2023/01/11 17:48:54;;;;;;;13.45;3.75;;;;;;;6.83;100.00;101062.94;10466950;28;20120;-80
2023/01/11 17:53:54;;;;;;;13.93;5.57;;;;;;;6.72;100.00;101065.72;10393414;28;20080;-80
2023/01/11 17:59:10;;;;;;;20.33;6.25;;;;;;;6.66;100.00;101062.72;10394501;28;20759;-80
2023/01/11 18:04:15;;;;;;;13.30;5.20;;;;;;;6.50;100.00;101066.03;10441097;28;20393;-84
2023/01/11 18:09:27;;;;;;;12.68;3.60;;;;;;;6.58;100.00;101076.91;10399746;28;20550;-82
2023/01/11 18:14:29;;;;;;;14.25;3.75;;;;;;;6.56;100.00;101074.22;10445968;28;20106;-83
2023/01/11 18:19:39;;;;;;;16.90;6.07;;;;;;;6.42;100.00;101069.81;10462747;28;20029;-86
2023/01/11 18:24:42;;;;;;;14.50;4.13;;;;;;;6.50;100.00;101068.63;10384756;28;20087;-82
2023/01/11 18:29:46;;;;;;;15.73;3.88;;;;;;;6.54;100.00;101070.63;10395717;28;20061;-83
2023/01/11 18:34:49;;;;;;;7.40;3.55;;;;;;;6.72;100.00;101059.66;10431356;28;20048;-81
2023/01/11 18:39:50;;;;;;;22.45;3.45;;;;;;;6.83;100.00;101036.94;10448262;28;20034;-81
2023/01/11 18:44:51;;;;;;;17.42;3.40;;;;;;;6.97;100.00;101046.53;10415535;28;20051;-81
2023/01/11 18:49:52;;;;;;;16.75;5.32;;;;;;;7.09;100.00;101040.31;10400108;28;20038;-80
2023/01/11 18:54:55;;;;;;;17.85;3.53;;;;;;;7.11;100.00;101039.63;10414614;28;20049;-82
2023/01/11 18:59:56;;;;;;;8.68;4.07;;;;;;;7.00;100.00;101041.53;10452282;28;20037;-80
2023/01/11 19:04:56;;;;;;;12.50;2.85;;;;;;;6.94;100.00;101035.03;10414718;28;20071;-79
2023/01/11 19:09:58;;;;;;;12.63;3.85;;;;;;;7.01;100.00;101019.91;10415660;28;20413;-81
2023/01/11 19:14:58;;;;;;;15.38;2.55;;;;;;;7.11;100.00;101004.88;10440232;28;20045;-79
2023/01/11 19:19:59;;;;;;;9.73;3.50;;;;;;;7.17;100.00;101014.00;10437223;28;20116;-82
2023/01/11 19:24:59;;;;;;;14.68;3.55;;;;;;;7.16;100.00;100991.38;10437491;28;20095;-82
2023/01/11 19:30:00;;;;;;;13.60;3.03;;;;;;;7.09;100.00;101010.00;10435848;28;20033;-82
2023/01/11 19:35:00;;;;;;;19.20;5.20;;;;;;;7.18;100.00;101008.00;10439857;28;20485;-80
2023/01/11 19:40:02;;;;;;;13.38;3.10;;;;;;;7.23;100.00;100986.56;10420946;28;20069;-80
2023/01/11 19:45:03;;;;;;;9.90;3.97;;;;;;;7.28;100.00;100990.34;10462169;28;20032;-81
2023/01/11 19:50:05;;;;;;;8.65;3.63;;;;;;;7.20;100.00;100984.63;10431243;28;20033;-81
2023/01/11 19:55:06;;;;;;;12.98;3.85;;;;;;;7.26;100.00;100973.72;10409965;28;20061;-81
2023/01/11 20:00:07;;;;;;;12.50;3.25;;;;;;;7.19;100.00;100965.53;10398225;28;20120;-81
2023/01/11 20:05:08;;;;;;;13.03;3.10;;;;;;;7.32;100.00;100946.34;10368514;28;20038;-81
2023/01/11 20:10:09;;;;;;;13.27;3.47;;;;;;;7.38;100.00;100951.06;10397238;28;20128;-79
2023/01/11 20:15:10;;;;;;;9.65;3.17;;;;;;;7.41;100.00;100946.03;10417392;28;20088;-79
2023/01/11 20:20:10;;;;;;;10.75;3.25;;;;;;;7.43;100.00;100948.72;10372493;28;20134;-80
2023/01/11 20:25:11;;;;;;;14.13;4.20;;;;;;;7.53;100.00;100951.09;10370213;28;20041;-82
2023/01/11 20:30:12;;;;;;;16.20;5.88;;;;;;;7.50;100.00;100948.28;10380697;28;20388;-87
2023/01/11 20:35:12;;;;;;;14.10;3.72;;;;;;;7.37;100.00;100935.31;10430588;28;20090;-83
2023/01/11 20:40:13;;;;;;;14.57;4.55;;;;;;;7.10;100.00;100922.41;10453590;28;20167;-83
2023/01/11 20:45:14;;;;;;;9.20;3.40;;;;;;;7.01;100.00;100917.53;10434642;28;20103;-84
2023/01/11 20:50:14;;;;;;;12.68;3.90;;;;;;;7.08;100.00;100927.53;10405767;28;20474;-84
2023/01/11 20:55:15;;;;;;;15.65;5.43;;;;;;;7.04;100.00;100918.59;10444414;28;20455;-84
2023/01/11 21:00:16;;;;;;;12.02;4.75;;;;;;;6.93;100.00;100918.75;10469064;28;20587;-83
2023/01/11 21:05:16;;;;;;;14.27;3.20;;;;;;;7.04;100.00;100912.53;10439230;28;20048;-83
2023/01/11 21:10:17;;;;;;;14.00;5.82;;;;;;;7.20;100.00;100897.06;10433852;28;20061;-83
2023/01/11 21:15:17;;;;;;;12.35;2.67;;;;;;;7.23;100.00;100913.66;10435431;28;20052;-84
2023/01/11 21:20:18;;;;;;;21.77;5.68;;;;;;;7.00;100.00;100910.53;10455418;28;20037;-83
2023/01/11 21:25:18;;;;;;;15.88;3.83;;;;;;;6.81;100.00;100913.66;10497788;28;20445;-85
2023/01/11 21:30:20;;;;;;;23.35;5.15;;;;;;;6.70;100.00;100946.78;10450176;28;20032;-84
2023/01/11 21:35:21;;;;;;;15.07;3.78;;;;;;;6.59;100.00;100940.88;10452353;28;20048;-84
2023/01/11 21:40:21;;;;;;;14.10;4.50;;;;;;;6.50;100.00;100984.50;10408956;28;20139;-86
2023/01/11 21:45:22;;;;;;;25.05;8.55;;;;;;;6.47;100.00;100975.69;10425104;28;20048;-79
2023/01/11 21:50:22;;;;;;;10.85;3.83;;;;;;;6.49;100.00;100982.69;10416219;28;20038;-82
2023/01/11 21:55:23;;;;;;;21.33;4.82;;;;;;;6.40;100.00;100975.19;10444765;28;20072;-83
2023/01/11 22:00:23;;;;;;;21.02;5.03;;;;;;;6.32;100.00;100974.66;10466580;28;20044;-82
2023/01/11 22:05:24;;;;;;;16.13;5.97;;;;;;;6.24;100.00;100984.56;10445602;28;20065;-84
2023/01/11 22:10:25;;;;;;;23.08;4.30;;;;;;;6.23;100.00;100977.56;10442447;28;20464;-83
2023/01/11 22:15:26;;;;;;;13.57;5.40;;;;;;;6.16;100.00;100989.25;10440703;28;20044;-84
2023/01/11 22:20:26;;;;;;;12.63;5.72;;;;;;;6.14;100.00;100996.03;10415095;28;20311;-85
2023/01/11 22:25:27;;;;;;;21.80;6.28;;;;;;;6.11;100.00;100995.81;10441700;28;20123;-83
2023/01/11 22:30:27;;;;;;;26.83;6.22;;;;;;;6.08;100.00;100999.94;10442046;28;20041;-83
2023/01/11 22:35:29;;;;;;;30.90;5.68;;;;;;;6.04;100.00;101004.00;10438562;28;20052;-84
2023/01/11 22:40:30;;;;;;;16.98;5.07;;;;;;;6.07;100.00;101009.41;10425622;28;20046;-84
2023/01/11 22:45:30;;;;;;;22.85;5.82;;;;;;;6.00;100.00;101014.94;10433477;28;20060;-84
2023/01/11 22:50:31;;;;;;;12.45;4.97;;;;;;;6.04;100.00;101019.59;10440854;28;20053;-83
2023/01/11 22:55:32;;;;;;;19.27;6.38;;;;;;;6.03;100.00;101015.19;10404939;28;20121;-82
2023/01/11 23:00:33;;;;;;;21.75;5.45;;;;;;;6.07;100.00;101011.13;10398505;28;20120;-83
2023/01/11 23:05:33;;;;;;;15.73;5.13;;;;;;;6.05;100.00;101013.59;10423537;28;20094;-82
2023/01/11 23:10:34;;;;;;;23.02;4.18;;;;;;;6.11;100.00;101018.34;10400405;28;20049;-83
2023/01/11 23:15:38;;;;;;;18.13;5.03;;;;;;;6.05;100.00;101015.31;10397087;28;20546;-83
2023/01/11 23:20:38;;;;;;;15.60;4.35;;;;;;;6.05;100.00;101004.91;10396458;28;20374;-84
2023/01/11 23:25:39;;;;;;;13.07;4.55;;;;;;;6.10;100.00;100993.13;10435130;28;20049;-83
2023/01/11 23:30:39;;;;;;;11.55;4.28;;;;;;;6.08;100.00;100974.84;10457393;28;20485;-83
2023/01/11 23:35:40;;;;;;;20.10;5.68;;;;;;;6.10;100.00;100981.03;10435866;28;20127;-82
2023/01/11 23:47:19;;;;;;;14.38;4.35;;;;;;;6.15;100.00;100970.97;10400379;28;20045;-83
2023/01/11 23:51:22;;;;;;;11.57;3.22;;;;;;;6.15;100.00;100963.16;10463298;28;20048;-80
2023/01/11 23:56:22;;;;;;;13.60;3.72;;;;;;;6.18;100.00;100968.56;10476145;28;20106;-82
